Terminal Aerodrome Forecast
Issued by NWS

Home | Current Version | Previous Version | Text Only | Print | Product List | Glossary On
Versions: 1 2 3 4 5 6 7 8 9 10 11 12 13 14 15
000
FTUS43 KGLD 041120
TAFMCK
TAF
KMCK 041120Z 0412/0512 26011KT P6SM SKC
     FM042100 25010KT P6SM SKC
     FM042300 21006KT P6SM SKC
     FM050400 20008KT P6SM FEW200 WS020/22035KT
     FM050800 21007KT P6SM SCT200=

USA.gov is the U.S. government's official web portal to all federal, state and local government web resources and services.